Time;durP1;ratioP1;P1;durP2;ratioP2;P2;SDS_P1;SDS_P2;PMS_P1;PMS_P2;Temp;Humidity;BMP_temperature;BMP_pressure;BME280_temperature;BME280_humidity;BME280_pressure;Samples;Min_cycle;Max_cycle;Signal;HPM_P1;HPM_P2
2024/03/21 00:01:33;;;;;;;11.25;7.85;;;;;;;5.04;100.00;98751.09;6109566;19;20007;-71
2024/03/21 00:03:34;;;;;;;11.88;7.13;;;;;;;5.00;100.00;98745.50;6109318;19;20010;-72
2024/03/21 00:05:34;;;;;;;10.10;7.38;;;;;;;4.96;100.00;98725.34;6109005;19;20006;-72
2024/03/21 00:07:35;;;;;;;13.48;7.55;;;;;;;4.97;100.00;98729.72;6107645;19;20078;-72
2024/03/21 00:09:38;;;;;;;11.00;7.47;;;;;;;4.96;100.00;98724.53;6105751;19;20010;-71
2024/03/21 00:11:38;;;;;;;12.80;7.15;;;;;;;4.95;100.00;98722.94;6101488;19;20502;-72
2024/03/21 00:13:38;;;;;;;11.20;7.63;;;;;;;4.94;100.00;98724.88;6101525;19;20003;-72
2024/03/21 00:15:41;;;;;;;12.63;8.02;;;;;;;4.92;100.00;98729.09;6100457;19;20023;-72
2024/03/21 00:17:42;;;;;;;10.38;7.13;;;;;;;4.90;100.00;98726.69;6101323;19;20002;-72
2024/03/21 00:19:42;;;;;;;11.23;7.80;;;;;;;4.89;100.00;98730.59;6101299;19;20434;-71
2024/03/21 00:21:42;;;;;;;10.40;7.15;;;;;;;4.87;100.00;98727.34;6101311;19;20002;-72
2024/03/21 00:23:43;;;;;;;13.95;7.72;;;;;;;4.85;100.00;98726.09;6100984;19;20007;-72
2024/03/21 00:25:43;;;;;;;11.98;7.22;;;;;;;4.84;100.00;98722.53;6099564;19;20006;-72
2024/03/21 00:27:45;;;;;;;10.88;7.20;;;;;;;4.83;100.00;98731.09;6100194;19;20017;-72
2024/03/21 00:29:45;;;;;;;10.68;6.75;;;;;;;4.79;100.00;98723.53;6101613;19;20404;-72
2024/03/21 00:31:46;;;;;;;11.52;6.63;;;;;;;4.77;100.00;98731.28;6101184;19;20856;-72
2024/03/21 00:33:48;;;;;;;10.65;6.70;;;;;;;4.74;100.00;98725.69;6099258;19;19999;-72
2024/03/21 00:35:48;;;;;;;12.40;6.70;;;;;;;4.71;100.00;98731.81;6100267;19;20489;-72
2024/03/21 00:37:49;;;;;;;9.68;6.65;;;;;;;4.65;100.00;98725.75;6101259;19;20006;-72
2024/03/21 00:39:49;;;;;;;10.70;6.82;;;;;;;4.62;100.00;98737.38;6101464;19;20002;-72
2024/03/21 00:41:50;;;;;;;9.57;6.75;;;;;;;4.59;100.00;98734.50;6100848;19;20025;-72
2024/03/21 00:43:50;;;;;;;16.55;7.07;;;;;;;4.56;100.00;98726.94;6101331;19;20010;-72
2024/03/21 00:45:51;;;;;;;10.60;6.57;;;;;;;4.51;100.00;98728.72;6101397;19;20007;-72
2024/03/21 00:47:51;;;;;;;11.10;7.50;;;;;;;4.47;100.00;98727.81;6100240;19;20251;-72
2024/03/21 00:49:51;;;;;;;11.90;7.97;;;;;;;4.43;100.00;98735.06;6100841;19;20365;-72
2024/03/21 00:51:51;;;;;;;11.98;7.70;;;;;;;4.39;100.00;98723.19;6100732;19;20447;-72
2024/03/21 00:53:52;;;;;;;12.23;7.82;;;;;;;4.42;100.00;98727.97;6100812;19;20038;-72
2024/03/21 00:55:52;;;;;;;9.75;7.28;;;;;;;4.41;100.00;98722.84;6098295;19;20018;-72
2024/03/21 00:57:52;;;;;;;10.38;6.90;;;;;;;4.39;100.00;98725.91;6099978;19;20505;-72
2024/03/21 00:59:53;;;;;;;10.27;6.85;;;;;;;4.30;100.00;98716.91;6101006;19;20017;-72
2024/03/21 01:01:54;;;;;;;9.50;6.50;;;;;;;4.29;100.00;98714.50;6100725;19;20042;-72
2024/03/21 01:03:55;;;;;;;9.80;6.88;;;;;;;4.28;100.00;98719.19;6100530;19;20369;-72
2024/03/21 01:05:56;;;;;;;9.90;6.57;;;;;;;4.24;100.00;98715.53;6100574;19;20350;-72
2024/03/21 01:07:56;;;;;;;11.25;6.70;;;;;;;4.21;100.00;98714.22;6100267;19;20010;-72
2024/03/21 01:09:57;;;;;;;12.43;7.28;;;;;;;4.18;100.00;98716.84;6102695;19;20003;-72
2024/03/21 01:11:58;;;;;;;9.68;5.88;;;;;;;4.15;100.00;98714.78;6106184;19;20007;-72
2024/03/21 01:13:58;;;;;;;9.23;6.80;;;;;;;4.12;100.00;98705.25;6107276;19;20054;-72
2024/03/21 01:15:59;;;;;;;9.90;6.03;;;;;;;4.13;100.00;98711.53;6106619;19;20010;-72
2024/03/21 01:18:03;;;;;;;9.02;6.55;;;;;;;4.13;100.00;98704.13;6107647;19;20013;-72
2024/03/21 01:20:06;;;;;;;9.90;6.32;;;;;;;4.13;100.00;98701.38;6107541;19;20010;-72
2024/03/21 01:22:06;;;;;;;10.45;7.15;;;;;;;4.11;100.00;98700.13;6107438;19;20002;-72
2024/03/21 01:24:06;;;;;;;11.10;6.88;;;;;;;4.13;100.00;98692.38;6107460;19;20009;-72
2024/03/21 01:26:08;;;;;;;9.73;6.80;;;;;;;4.04;100.00;98686.94;6103368;19;20006;-72
2024/03/21 01:28:08;;;;;;;12.02;7.35;;;;;;;3.97;100.00;98677.63;6106481;19;20261;-72
2024/03/21 01:30:09;;;;;;;15.77;7.65;;;;;;;3.94;100.00;98687.31;6107636;19;20009;-72
2024/03/21 01:32:09;;;;;;;11.32;6.72;;;;;;;3.95;100.00;98684.25;6104890;19;20010;-72
2024/03/21 01:34:09;;;;;;;12.60;7.93;;;;;;;3.95;100.00;98681.50;6106541;19;20491;-72
2024/03/21 01:36:10;;;;;;;11.30;6.57;;;;;;;3.99;100.00;98678.13;6105376;19;20016;-72
2024/03/21 01:38:12;;;;;;;11.40;6.85;;;;;;;3.94;100.00;98679.91;6106367;19;20018;-71
2024/03/21 01:40:13;;;;;;;13.25;7.25;;;;;;;3.89;100.00;98690.25;6105170;19;20042;-72
2024/03/21 01:42:18;;;;;;;10.13;6.82;;;;;;;3.87;100.00;98692.50;6105642;19;20003;-72
2024/03/21 01:44:21;;;;;;;10.32;7.13;;;;;;;3.83;100.00;98692.34;6107073;19;20011;-72
2024/03/21 01:46:22;;;;;;;11.95;7.68;;;;;;;3.77;100.00;98688.19;6111310;19;20030;-72
2024/03/21 01:48:23;;;;;;;12.15;6.57;;;;;;;3.76;100.00;98683.84;6112714;19;20011;-72
2024/03/21 01:50:25;;;;;;;9.40;6.57;;;;;;;3.75;100.00;98692.41;6112465;19;20376;-72
2024/03/21 01:52:26;;;;;;;13.70;8.97;;;;;;;3.68;100.00;98684.69;6112899;19;20476;-71
2024/03/21 01:54:27;;;;;;;14.63;7.43;;;;;;;3.66;100.00;98676.81;6112433;19;20237;-71
2024/03/21 01:56:27;;;;;;;15.20;8.00;;;;;;;3.63;100.00;98682.91;6110162;19;20082;-72
2024/03/21 01:58:28;;;;;;;13.13;8.30;;;;;;;3.60;100.00;98680.84;6113008;19;20643;-72
2024/03/21 02:00:28;;;;;;;13.10;8.23;;;;;;;3.57;100.00;98680.72;6112466;19;20014;-72
2024/03/21 02:02:29;;;;;;;15.25;8.32;;;;;;;3.53;100.00;98691.47;6112113;19;20483;-72
2024/03/21 02:04:30;;;;;;;11.70;7.45;;;;;;;3.54;100.00;98692.28;6112124;19;20021;-72
2024/03/21 02:06:35;;;;;;;11.20;7.25;;;;;;;3.51;100.00;98684.75;6111538;19;20010;-72
2024/03/21 02:08:35;;;;;;;10.43;7.10;;;;;;;3.56;100.00;98690.06;6111920;19;20465;-72
2024/03/21 02:10:36;;;;;;;14.10;8.32;;;;;;;3.54;100.00;98687.63;6111336;19;20011;-72
2024/03/21 02:12:49;;;;;;;11.70;6.80;;;;;;;3.53;100.00;98685.22;6112057;19;20007;-71
2024/03/21 02:14:50;;;;;;;10.93;6.82;;;;;;;3.49;100.00;98681.53;6112052;19;20010;-71
2024/03/21 02:16:51;;;;;;;15.00;8.00;;;;;;;3.45;100.00;98678.63;6110290;19;20011;-71
2024/03/21 02:18:52;;;;;;;13.65;7.60;;;;;;;3.46;100.00;98679.44;6112802;19;20035;-71
2024/03/21 02:20:52;;;;;;;11.98;7.88;;;;;;;3.47;100.00;98691.97;6110813;19;20002;-71
2024/03/21 02:22:53;;;;;;;13.38;7.82;;;;;;;3.44;100.00;98685.25;6111177;19;20011;-71
2024/03/21 02:24:53;;;;;;;11.75;7.93;;;;;;;3.45;100.00;98686.84;6109075;19;20527;-71
2024/03/21 02:26:53;;;;;;;13.55;7.90;;;;;;;3.44;100.00;98679.78;6110009;19;20015;-71
2024/03/21 02:28:53;;;;;;;12.60;8.15;;;;;;;3.44;100.00;98678.97;6111113;19;20027;-71
2024/03/21 02:30:55;;;;;;;14.60;8.52;;;;;;;3.45;100.00;98683.31;6111570;19;20018;-71
2024/03/21 02:32:55;;;;;;;9.40;6.93;;;;;;;3.46;100.00;98687.63;6110944;19;20010;-71
2024/03/21 02:34:56;;;;;;;11.50;7.60;;;;;;;3.41;100.00;98685.91;6111898;19;20017;-71
2024/03/21 02:36:56;;;;;;;11.50;7.63;;;;;;;3.36;100.00;98672.38;6109344;19;20007;-71
2024/03/21 02:38:57;;;;;;;10.38;7.53;;;;;;;3.38;100.00;98681.88;6110761;19;20377;-71
2024/03/21 02:40:57;;;;;;;10.85;7.07;;;;;;;3.37;100.00;98679.47;6111069;19;20317;-72
2024/03/21 02:42:57;;;;;;;11.27;6.72;;;;;;;3.38;100.00;98681.06;6110227;19;20483;-72
2024/03/21 02:44:57;;;;;;;11.10;7.43;;;;;;;3.33;100.00;98665.66;6110704;19;20333;-72
2024/03/21 02:46:58;;;;;;;11.43;6.78;;;;;;;3.42;100.00;98667.56;6109856;19;20483;-71
2024/03/21 02:48:58;;;;;;;10.98;6.97;;;;;;;3.44;100.00;98666.09;6109915;19;20014;-71
2024/03/21 02:50:58;;;;;;;10.85;7.00;;;;;;;3.44;100.00;98670.75;6111171;19;20013;-71
2024/03/21 02:53:00;;;;;;;9.90;6.22;;;;;;;3.44;100.00;98679.78;6110233;19;20320;-71
2024/03/21 02:55:00;;;;;;;11.27;6.53;;;;;;;3.42;100.00;98664.81;6111254;19;20014;-71
2024/03/21 02:57:03;;;;;;;14.13;7.20;;;;;;;3.46;100.00;98677.50;6108059;19;20351;-71
2024/03/21 02:59:03;;;;;;;11.60;7.03;;;;;;;3.45;100.00;98680.56;6110538;19;20010;-71
2024/03/21 03:01:03;;;;;;;10.77;7.47;;;;;;;3.40;100.00;98669.81;6110347;19;20036;-71
2024/03/21 03:03:04;;;;;;;9.93;7.30;;;;;;;3.40;100.00;98670.63;6110568;19;20768;-71
2024/03/21 03:05:05;;;;;;;13.23;7.80;;;;;;;3.37;100.00;98671.25;6110615;19;20339;-71
2024/03/21 03:07:05;;;;;;;16.15;8.43;;;;;;;3.31;100.00;98672.53;6108183;19;20007;-71
2024/03/21 03:09:06;;;;;;;10.55;7.18;;;;;;;3.33;100.00;98671.13;6110135;19;19998;-71
2024/03/21 03:11:06;;;;;;;10.23;7.03;;;;;;;3.36;100.00;98673.19;6109651;19;20435;-71
2024/03/21 03:13:07;;;;;;;10.82;7.22;;;;;;;3.38;100.00;98668.19;6110169;19;20015;-71
2024/03/21 03:15:07;;;;;;;10.13;6.10;;;;;;;3.37;100.00;98665.78;6109465;19;20010;-71
2024/03/21 03:17:08;;;;;;;16.73;7.50;;;;;;;3.40;100.00;98667.09;6108666;19;20443;-71
2024/03/21 03:19:08;;;;;;;12.88;7.60;;;;;;;3.30;100.00;98663.53;6110985;19;20003;-71
2024/03/21 03:21:08;;;;;;;12.77;8.05;;;;;;;3.29;100.00;98663.88;6109960;19;20164;-71
2024/03/21 03:23:09;;;;;;;12.82;7.88;;;;;;;3.29;100.00;98663.88;6109439;19;20020;-71
2024/03/21 03:25:10;;;;;;;11.45;7.43;;;;;;;3.26;100.00;98670.00;6108330;19;20003;-71
2024/03/21 03:27:10;;;;;;;12.65;7.38;;;;;;;3.25;100.00;98665.66;6108110;19;20016;-71
2024/03/21 03:29:10;;;;;;;10.38;7.65;;;;;;;3.24;100.00;98673.06;6110191;19;20347;-71
2024/03/21 03:31:11;;;;;;;9.15;6.50;;;;;;;3.21;100.00;98670.97;6109510;19;20376;-71
2024/03/21 03:35:44;;;;;;;20.58;6.78;;;;;;;3.18;100.00;98663.41;6109964;19;20052;-71
2024/03/21 03:37:44;;;;;;;9.93;6.40;;;;;;;3.18;100.00;98663.41;6110011;19;20003;-71
2024/03/21 03:39:44;;;;;;;8.23;6.15;;;;;;;3.13;100.00;98660.84;6109397;19;20024;-71
2024/03/21 03:41:45;;;;;;;9.57;6.00;;;;;;;3.09;100.00;98663.44;6109396;19;20006;-71
2024/03/21 03:43:45;;;;;;;12.35;7.18;;;;;;;3.02;100.00;98649.47;6110251;19;20015;-71
2024/03/21 03:45:46;;;;;;;10.60;7.28;;;;;;;3.01;100.00;98653.31;6108506;19;20047;-71
2024/03/21 03:47:46;;;;;;;14.02;7.43;;;;;;;3.03;100.00;98655.72;6109100;19;20014;-72
2024/03/21 03:49:46;;;;;;;11.95;7.40;;;;;;;2.99;100.00;98654.78;6109838;19;19999;-72
2024/03/21 03:51:46;;;;;;;11.88;7.43;;;;;;;2.96;100.00;98648.00;6108346;19;20006;-72
2024/03/21 03:53:48;;;;;;;9.93;6.55;;;;;;;2.96;100.00;98649.94;6108871;19;19998;-72
2024/03/21 03:55:48;;;;;;;10.50;7.45;;;;;;;2.91;100.00;98647.41;6109055;19;20366;-72
2024/03/21 03:57:48;;;;;;;11.30;7.00;;;;;;;2.91;100.00;98652.84;6108635;19;19999;-72
2024/03/21 03:59:48;;;;;;;17.42;9.35;;;;;;;2.90;100.00;98659.47;6109107;19;20002;-72
2024/03/21 04:01:49;;;;;;;11.75;7.50;;;;;;;2.87;100.00;98660.09;6108640;19;20523;-72
2024/03/21 04:03:49;;;;;;;11.95;7.50;;;;;;;2.82;100.00;98652.88;6109664;19;20022;-72
2024/03/21 04:05:56;;;;;;;13.15;6.88;;;;;;;2.85;100.00;98659.59;6107522;19;20010;-72
2024/03/21 04:07:57;;;;;;;10.65;7.85;;;;;;;2.84;100.00;98652.53;6105581;19;20003;-72
2024/03/21 04:09:57;;;;;;;12.75;7.53;;;;;;;2.84;100.00;98649.81;6099493;19;20030;-72
2024/03/21 04:11:57;;;;;;;10.43;7.05;;;;;;;2.84;100.00;98658.00;6108048;19;19999;-72
2024/03/21 04:13:58;;;;;;;11.73;7.22;;;;;;;2.77;100.00;98647.56;6108106;19;19998;-72
2024/03/21 04:15:59;;;;;;;10.70;8.40;;;;;;;2.76;100.00;98652.22;6107055;19;20061;-72
2024/03/21 04:17:59;;;;;;;13.05;8.02;;;;;;;2.73;100.00;98647.41;6108529;19;20342;-72
2024/03/21 04:20:02;;;;;;;18.70;7.38;;;;;;;2.73;100.00;98647.41;6105782;19;20003;-72
2024/03/21 04:22:03;;;;;;;12.63;8.10;;;;;;;2.73;100.00;98647.41;6107405;19;20002;-72
2024/03/21 04:24:04;;;;;;;11.85;7.57;;;;;;;2.72;100.00;98651.25;6108166;19;20014;-72
2024/03/21 04:26:04;;;;;;;14.02;8.40;;;;;;;2.72;100.00;98655.91;6104932;19;20003;-72
2024/03/21 04:28:05;;;;;;;9.85;7.35;;;;;;;2.72;100.00;98653.16;6108723;19;20044;-72
2024/03/21 04:30:05;;;;;;;12.15;8.02;;;;;;;2.69;100.00;98656.56;6107356;19;20003;-72
2024/03/21 04:32:13;;;;;;;10.63;6.85;;;;;;;2.68;100.00;98653.03;6105845;19;19998;-72
2024/03/21 04:34:14;;;;;;;15.30;8.52;;;;;;;2.67;100.00;98648.69;6107130;19;20003;-72
2024/03/21 04:36:14;;;;;;;16.75;8.20;;;;;;;2.66;100.00;98640.81;6099496;19;20015;-72
2024/03/21 04:38:15;;;;;;;12.88;7.97;;;;;;;2.65;100.00;98642.75;6106107;19;20491;-72
2024/03/21 04:40:15;;;;;;;11.88;7.97;;;;;;;2.64;100.00;98643.84;6107478;19;20010;-72
2024/03/21 04:42:16;;;;;;;12.57;7.85;;;;;;;2.66;100.00;98643.56;6105658;19;20488;-71
2024/03/21 04:44:17;;;;;;;13.52;7.97;;;;;;;2.64;100.00;98641.13;6106533;19;20025;-71
2024/03/21 04:46:17;;;;;;;13.90;8.13;;;;;;;2.63;100.00;98636.78;6105961;19;20373;-71
2024/03/21 04:48:17;;;;;;;10.35;7.15;;;;;;;2.62;100.00;98646.09;6107584;19;20023;-71
2024/03/21 04:50:19;;;;;;;13.50;7.85;;;;;;;2.61;100.00;98636.31;6107646;19;20014;-71
2024/03/21 04:52:20;;;;;;;10.27;7.07;;;;;;;2.62;100.00;98640.66;6108006;19;20003;-71
2024/03/21 04:54:21;;;;;;;9.57;6.70;;;;;;;2.61;100.00;98633.56;6105930;19;20063;-71
2024/03/21 04:56:21;;;;;;;13.43;7.30;;;;;;;2.61;100.00;98635.50;6106577;19;20407;-71
2024/03/21 04:58:21;;;;;;;12.15;7.40;;;;;;;2.58;100.00;98645.16;6107147;19;20455;-71
2024/03/21 05:00:22;;;;;;;10.45;6.53;;;;;;;2.55;100.00;98643.03;6108103;19;20018;-71
2024/03/21 05:02:23;;;;;;;10.77;7.38;;;;;;;2.52;100.00;98640.97;6107385;19;20050;-71
2024/03/21 05:04:23;;;;;;;8.85;6.78;;;;;;;2.51;100.00;98647.56;6100546;19;20015;-71
2024/03/21 05:06:24;;;;;;;10.48;7.00;;;;;;;2.47;100.00;98641.13;6102220;19;20011;-72
2024/03/21 05:08:25;;;;;;;11.50;6.43;;;;;;;2.43;100.00;98638.25;6102597;19;20003;-71
2024/03/21 05:10:26;;;;;;;14.05;7.75;;;;;;;2.45;100.00;98646.91;6100306;19;20014;-71
2024/03/21 05:12:27;;;;;;;11.60;7.63;;;;;;;2.43;100.00;98637.44;6099749;19;20029;-71
2024/03/21 05:14:33;;;;;;;11.70;7.57;;;;;;;2.44;100.00;98641.78;6100506;19;20003;-72
2024/03/21 05:16:33;;;;;;;12.68;6.95;;;;;;;2.42;100.00;98644.03;6097822;19;20022;-72
2024/03/21 05:18:33;;;;;;;12.00;7.70;;;;;;;2.39;100.00;98645.44;6099708;19;20219;-72
2024/03/21 05:20:35;;;;;;;14.13;8.85;;;;;;;2.38;100.00;98637.59;6100668;19;20006;-72
2024/03/21 05:22:35;;;;;;;12.40;8.18;;;;;;;2.39;100.00;98644.66;6101351;19;20010;-72
2024/03/21 05:24:35;;;;;;;18.13;8.43;;;;;;;2.39;100.00;98642.72;6100505;19;20005;-72
2024/03/21 05:26:36;;;;;;;12.35;8.23;;;;;;;2.40;100.00;98647.09;6099770;19;20012;-72
2024/03/21 05:28:36;;;;;;;11.02;7.50;;;;;;;2.43;100.00;98640.16;6101044;19;20348;-72
2024/03/21 05:30:37;;;;;;;13.73;8.35;;;;;;;2.45;100.00;98649.63;6098742;19;20011;-71
2024/03/21 05:32:37;;;;;;;16.02;8.98;;;;;;;2.42;100.00;98650.28;6100825;19;20443;-72
2024/03/21 05:34:37;;;;;;;13.00;8.32;;;;;;;2.44;100.00;98644.50;6098377;19;20012;-72
2024/03/21 05:36:38;;;;;;;14.05;8.18;;;;;;;2.47;100.00;98650.13;6097254;19;20026;-71
2024/03/21 05:38:38;;;;;;;12.80;8.60;;;;;;;2.47;100.00;98650.13;6101133;19;20094;-71
2024/03/21 05:40:42;;;;;;;19.48;9.00;;;;;;;2.51;100.00;98653.81;6097809;19;20003;-72
2024/03/21 05:42:47;;;;;;;22.85;9.38;;;;;;;2.48;100.00;98654.47;6095930;19;20100;-71
2024/03/21 05:44:50;;;;;;;15.10;8.80;;;;;;;2.53;100.00;98648.84;6098015;19;20015;-71
2024/03/21 05:46:50;;;;;;;14.07;9.10;;;;;;;2.53;100.00;98648.84;6096572;19;20070;-72
2024/03/21 05:48:50;;;;;;;17.95;8.85;;;;;;;2.58;100.00;98653.34;6098739;19;20040;-71
2024/03/21 05:50:51;;;;;;;16.50;9.80;;;;;;;2.61;100.00;98639.03;6098036;19;20007;-71
2024/03/21 05:52:51;;;;;;;13.55;9.27;;;;;;;2.65;100.00;98650.13;6098068;19;20030;-72
2024/03/21 05:54:52;;;;;;;12.98;9.05;;;;;;;2.73;100.00;98644.69;6098589;19;20037;-72
2024/03/21 05:56:52;;;;;;;16.98;9.82;;;;;;;2.78;100.00;98647.22;6099518;19;20077;-72
2024/03/21 05:58:52;;;;;;;16.45;10.00;;;;;;;2.83;100.00;98640.81;6099982;19;20344;-72
2024/03/21 06:01:03;;;;;;;15.30;9.45;;;;;;;2.89;100.00;98639.50;6099697;19;20938;-72
2024/03/21 06:03:03;;;;;;;19.67;11.63;;;;;;;2.94;100.00;98642.06;6099928;19;20500;-71
2024/03/21 06:05:04;;;;;;;15.60;10.20;;;;;;;3.00;100.00;98639.97;6099879;19;20456;-71
2024/03/21 06:07:04;;;;;;;21.17;10.68;;;;;;;3.06;100.00;98649.59;6098863;19;20006;-71
2024/03/21 06:09:08;;;;;;;15.52;9.95;;;;;;;3.11;100.00;98649.44;6099250;19;20026;-71
2024/03/21 06:11:08;;;;;;;16.17;9.77;;;;;;;3.19;100.00;98645.09;6106090;19;20034;-71
2024/03/21 06:13:09;;;;;;;16.27;10.35;;;;;;;3.24;100.00;98658.59;6107583;19;20459;-71
2024/03/21 06:15:09;;;;;;;12.63;9.48;;;;;;;3.27;100.00;98642.31;6106169;19;20003;-71
2024/03/21 06:17:09;;;;;;;17.95;9.95;;;;;;;3.36;100.00;98664.97;6104527;19;20036;-71
2024/03/21 06:19:09;;;;;;;15.52;9.90;;;;;;;3.42;100.00;98649.22;6107179;19;20491;-71
2024/03/21 06:21:10;;;;;;;15.93;10.20;;;;;;;3.45;100.00;98637.59;6106109;19;20079;-71
2024/03/21 06:23:11;;;;;;;16.25;10.18;;;;;;;3.52;100.00;98643.38;6107062;19;20317;-71
2024/03/21 06:25:11;;;;;;;17.02;10.68;;;;;;;3.56;100.00;98638.06;6103681;19;20372;-71
2024/03/21 06:27:12;;;;;;;15.25;10.52;;;;;;;3.62;100.00;98651.22;6104579;19;20014;-71
2024/03/21 06:29:12;;;;;;;17.38;10.40;;;;;;;3.67;100.00;98642.03;6106157;19;20070;-71
2024/03/21 06:31:13;;;;;;;15.73;10.68;;;;;;;3.75;100.00;98646.66;6107601;19;20010;-71
2024/03/21 06:33:13;;;;;;;15.20;10.38;;;;;;;3.81;100.00;98650.03;6112192;19;20007;-71
2024/03/21 06:35:14;;;;;;;16.63;10.10;;;;;;;3.84;100.00;98641.16;6110917;19;20033;-71
2024/03/21 06:37:15;;;;;;;17.48;10.00;;;;;;;3.90;100.00;98648.06;6110272;19;20047;-72
2024/03/21 06:39:15;;;;;;;15.90;10.07;;;;;;;3.94;100.00;98647.06;6110991;19;20007;-71
2024/03/21 06:41:16;;;;;;;18.73;10.18;;;;;;;4.01;100.00;98651.22;6107510;19;20014;-71
2024/03/21 06:43:17;;;;;;;24.75;15.38;;;;;;;4.09;100.00;98644.88;6108305;19;20055;-71
2024/03/21 06:45:18;;;;;;;26.52;15.90;;;;;;;4.16;100.00;98653.38;6109056;19;20010;-71
2024/03/21 06:47:19;;;;;;;21.25;12.02;;;;;;;4.23;100.00;98659.94;6109524;19;20015;-71
2024/03/21 06:49:20;;;;;;;16.90;10.95;;;;;;;4.28;100.00;98656.19;6110029;19;20021;-71
2024/03/21 06:51:20;;;;;;;17.58;11.98;;;;;;;4.31;100.00;98654.75;6109847;19;20356;-71
2024/03/21 06:53:22;;;;;;;18.65;11.82;;;;;;;4.37;100.00;98651.47;6110193;19;20102;-71
2024/03/21 06:55:23;;;;;;;15.45;11.52;;;;;;;4.40;100.00;98659.03;6110736;19;20423;-71
2024/03/21 06:57:25;;;;;;;20.08;13.30;;;;;;;4.47;100.00;98658.50;6109575;19;20020;-71
2024/03/21 06:59:25;;;;;;;17.00;12.43;;;;;;;4.56;100.00;98650.22;6111211;19;20013;-71
2024/03/21 07:01:26;;;;;;;22.92;14.20;;;;;;;4.61;100.00;98648.06;6110563;19;20352;-71
2024/03/21 07:03:26;;;;;;;25.40;15.98;;;;;;;4.70;100.00;98645.25;6111340;19;20015;-71
2024/03/21 07:05:26;;;;;;;24.50;14.90;;;;;;;4.74;100.00;98643.47;6109240;19;20010;-72
2024/03/21 07:07:27;;;;;;;21.52;15.15;;;;;;;4.80;100.00;98650.34;6109339;19;20010;-72
2024/03/21 07:09:27;;;;;;;19.85;14.48;;;;;;;4.86;100.00;98653.66;6111150;19;20354;-72
2024/03/21 07:11:27;;;;;;;30.98;18.58;;;;;;;4.95;100.00;98655.19;6111127;19;20006;-71
2024/03/21 07:13:28;;;;;;;32.72;20.33;;;;;;;5.02;100.00;98655.44;6110299;19;20024;-71
2024/03/21 07:15:28;;;;;;;40.80;22.52;;;;;;;5.11;100.00;98654.56;6111756;19;20006;-71
2024/03/21 07:17:28;;;;;;;59.40;31.73;;;;;;;5.21;100.00;98652.22;6109580;19;20018;-71
2024/03/21 07:19:34;;;;;;;42.22;23.25;;;;;;;5.31;100.00;98659.22;6110544;19;20022;-71
2024/03/21 07:21:35;;;;;;;35.33;21.55;;;;;;;5.40;100.00;98651.69;6111246;19;20018;-71
2024/03/21 07:23:35;;;;;;;34.28;20.88;;;;;;;5.48;100.00;98650.00;6111889;19;20253;-71
2024/03/21 07:25:36;;;;;;;38.40;20.58;;;;;;;5.52;100.00;98648.16;6111012;19;20014;-71
2024/03/21 07:27:36;;;;;;;31.48;19.63;;;;;;;5.60;100.00;98661.00;6109440;19;20360;-71
2024/03/21 07:29:37;;;;;;;25.17;16.33;;;;;;;5.68;100.00;98665.56;6109931;19;20070;-72
2024/03/21 07:31:37;;;;;;;23.23;15.20;;;;;;;5.74;100.00;98666.97;6109983;19;20040;-72
2024/03/21 07:33:37;;;;;;;26.25;15.13;;;;;;;5.80;100.00;98667.56;6111530;19;20010;-72
2024/03/21 07:35:38;;;;;;;25.42;13.20;;;;;;;5.88;100.00;98670.19;6109679;19;20034;-72
2024/03/21 07:37:38;;;;;;;18.13;11.07;;;;;;;5.94;100.00;98664.47;6110256;19;20506;-72
2024/03/21 07:39:38;;;;;;;21.63;11.82;;;;;;;6.00;100.00;98677.66;6110709;19;20010;-72
2024/03/21 07:41:38;;;;;;;17.95;12.10;;;;;;;6.06;100.00;98683.72;6108183;19;20344;-72
2024/03/21 07:43:40;;;;;;;18.42;12.02;;;;;;;6.11;100.00;98683.47;6110872;19;20495;-71
2024/03/21 07:45:40;;;;;;;19.50;12.23;;;;;;;6.15;100.00;98681.66;6109614;19;20015;-71
2024/03/21 07:47:41;;;;;;;15.07;10.98;;;;;;;6.17;100.00;98669.19;6109505;19;20007;-72
2024/03/21 07:49:41;;;;;;;17.83;11.52;;;;;;;6.21;100.00;98669.31;6110215;19;20467;-72
2024/03/21 07:51:41;;;;;;;17.13;11.93;;;;;;;6.24;100.00;98670.56;6110854;19;20036;-72
2024/03/21 07:53:41;;;;;;;15.95;11.07;;;;;;;6.31;100.00;98673.53;6110439;19;20011;-72
2024/03/21 07:55:45;;;;;;;18.73;13.00;;;;;;;6.40;100.00;98675.00;6109179;19;20006;-71
2024/03/21 07:57:45;;;;;;;17.20;10.73;;;;;;;6.47;100.00;98674.44;6109279;19;20002;-71
2024/03/21 07:59:45;;;;;;;15.27;11.02;;;;;;;6.54;100.00;98680.16;6109929;19;20527;-71
2024/03/21 08:01:46;;;;;;;21.45;12.80;;;;;;;6.63;100.00;98678.06;6110460;19;20106;-71
2024/03/21 08:03:46;;;;;;;19.83;12.02;;;;;;;6.73;100.00;98685.03;6110540;19;20004;-71
2024/03/21 08:05:46;;;;;;;19.52;11.85;;;;;;;6.84;100.00;98694.38;6109292;19;20367;-71
2024/03/21 08:07:47;;;;;;;20.23;12.70;;;;;;;6.94;100.00;98684.84;6109246;19;20006;-71
2024/03/21 08:09:47;;;;;;;25.52;13.18;;;;;;;7.05;100.00;98696.97;6109536;19;19998;-71
2024/03/21 08:11:47;;;;;;;22.40;13.63;;;;;;;7.15;100.00;98703.94;6109394;19;20002;-72
2024/03/21 08:13:48;;;;;;;22.23;13.88;;;;;;;7.29;100.00;98704.34;6110247;19;20007;-72
2024/03/21 08:15:48;;;;;;;21.27;14.07;;;;;;;7.43;100.00;98707.47;6109127;19;20007;-72
2024/03/21 08:17:48;;;;;;;21.83;13.65;;;;;;;7.53;100.00;98700.63;6109380;19;20018;-71
2024/03/21 08:19:50;;;;;;;23.38;13.30;;;;;;;7.79;100.00;98713.94;6109971;19;20362;-71
2024/03/21 08:21:51;;;;;;;22.73;14.15;;;;;;;7.96;100.00;98710.84;6109854;19;20482;-71
2024/03/21 08:23:51;;;;;;;20.48;12.88;;;;;;;8.14;100.00;98719.56;6109182;19;20007;-71
2024/03/21 08:25:51;;;;;;;20.60;12.88;;;;;;;8.30;100.00;98714.03;6109523;19;20007;-71
2024/03/21 08:27:52;;;;;;;20.02;13.45;;;;;;;8.38;100.00;98718.59;6108725;19;20014;-71
2024/03/21 08:29:53;;;;;;;19.70;12.75;;;;;;;8.51;100.00;98727.53;6109605;19;20034;-71
2024/03/21 08:31:53;;;;;;;17.90;11.75;;;;;;;8.55;100.00;98726.47;6109237;19;20497;-71
2024/03/21 08:33:54;;;;;;;17.67;11.95;;;;;;;8.60;100.00;98726.19;6109829;19;20027;-71
2024/03/21 08:35:56;;;;;;;16.85;11.40;;;;;;;8.69;100.00;98723.25;6106060;19;20017;-71
2024/03/21 08:37:56;;;;;;;18.40;11.63;;;;;;;8.74;100.00;98725.72;6108848;19;20006;-71
2024/03/21 08:39:58;;;;;;;21.13;12.77;;;;;;;8.75;100.00;98721.81;6109011;19;20017;-71
2024/03/21 08:41:58;;;;;;;16.73;11.18;;;;;;;8.81;100.00;98728.66;6107101;19;20014;-71
2024/03/21 08:43:58;;;;;;;16.13;10.95;;;;;;;8.87;100.00;98738.25;6109189;19;20007;-72
2024/03/21 08:45:59;;;;;;;18.73;11.88;;;;;;;8.95;100.00;98734.50;6108476;19;20486;-72
2024/03/21 08:48:02;;;;;;;17.73;10.90;;;;;;;9.04;100.00;98744.53;6108098;19;20014;-72
2024/03/21 08:50:03;;;;;;;21.40;13.45;;;;;;;9.08;100.00;98742.63;6108796;19;20350;-72
2024/03/21 08:52:03;;;;;;;18.00;12.25;;;;;;;9.10;100.00;98737.53;6108239;19;20006;-71
2024/03/21 08:54:04;;;;;;;15.45;10.38;;;;;;;9.13;100.00;98745.13;6107849;19;20019;-71
2024/03/21 08:56:05;;;;;;;16.70;11.13;;;;;;;9.18;100.00;98747.56;6106878;19;20002;-72
2024/03/21 08:58:05;;;;;;;15.38;11.50;;;;;;;9.28;100.00;98744.25;6107471;19;20003;-71
2024/03/21 09:00:06;;;;;;;16.75;10.68;;;;;;;9.34;100.00;98748.31;6109066;19;20070;-72
2024/03/21 09:02:06;;;;;;;16.02;10.80;;;;;;;9.40;100.00;98752.38;6108258;19;20547;-72
2024/03/21 09:04:07;;;;;;;16.80;10.38;;;;;;;9.48;100.00;98754.13;6108307;19;20003;-72
2024/03/21 09:06:07;;;;;;;16.80;9.45;;;;;;;9.52;100.00;98752.25;6107030;19;20248;-72
2024/03/21 09:08:08;;;;;;;15.23;9.77;;;;;;;9.49;100.00;98755.72;6107745;19;20462;-72
2024/03/21 09:10:09;;;;;;;17.08;10.07;;;;;;;9.51;100.00;98753.38;6098590;19;20007;-72
2024/03/21 09:12:09;;;;;;;20.25;9.90;;;;;;;9.59;100.00;98757.09;6105877;19;20013;-71
2024/03/21 09:14:09;;;;;;;17.08;10.95;;;;;;;9.65;100.00;98757.59;6107960;19;20002;-71
2024/03/21 09:16:10;;;;;;;20.65;12.52;;;;;;;9.71;100.00;98745.09;6105736;19;20346;-72
2024/03/21 09:18:10;;;;;;;17.48;10.63;;;;;;;9.86;100.00;98758.03;6107933;19;19994;-71
2024/03/21 09:20:11;;;;;;;13.93;9.55;;;;;;;10.02;100.00;98763.44;6109009;19;20002;-71
2024/03/21 09:22:11;;;;;;;16.27;10.98;;;;;;;10.10;100.00;98760.44;6105426;19;20036;-72
2024/03/21 09:24:11;;;;;;;14.13;8.88;;;;;;;10.17;100.00;98761.72;6107461;19;20012;-72